createdAt,value
2018-12-01T00:00:23.751Z,66.10
2018-12-01T00:02:51.978Z,66.20
2018-12-01T00:05:20.158Z,65.50
2018-12-01T00:07:49.027Z,64.80
2018-12-01T00:10:17.191Z,62.90
2018-12-01T00:12:45.358Z,62.10
2018-12-01T00:15:16.787Z,63.10
2018-12-01T00:17:44.999Z,64.70
2018-12-01T00:20:17.551Z,64.50
2018-12-01T00:22:45.732Z,60.80
2018-12-01T00:25:13.955Z,59.00
2018-12-01T00:27:42.112Z,60.30
2018-12-01T00:30:13.203Z,61.90
2018-12-01T00:32:41.763Z,62.40
2018-12-01T00:35:11.067Z,63.70
2018-12-01T00:37:39.251Z,64.70
2018-12-01T00:40:10.675Z,64.60
2018-12-01T00:42:39.175Z,63.40
2018-12-01T00:45:09.077Z,60.80
2018-12-01T00:47:37.276Z,58.00
2018-12-01T00:50:09.147Z,56.40
2018-12-01T00:52:37.385Z,56.30
2018-12-01T00:55:07.419Z,56.40
2018-12-01T00:57:35.607Z,56.20
2018-12-01T01:00:05.786Z,54.10
2018-12-01T01:02:34.123Z,52.50
2018-12-01T01:05:02.268Z,51.90
2018-12-01T01:07:30.442Z,53.20
2018-12-01T01:09:58.628Z,54.00
2018-12-01T01:12:27.131Z,54.20
2018-12-01T01:14:55.308Z,54.60
2018-12-01T01:17:23.455Z,54.20
2018-12-01T01:19:51.604Z,54.70
2018-12-01T01:22:19.795Z,56.10
2018-12-01T01:24:48.071Z,57.80
2018-12-01T01:27:16.240Z,57.50
2018-12-01T01:29:44.367Z,57.80
2018-12-01T01:32:12.636Z,58.20
2018-12-01T01:34:40.977Z,59.50
2018-12-01T01:37:09.147Z,60.40
2018-12-01T01:39:37.351Z,62.20
2018-12-01T01:42:05.771Z,62.70
2018-12-01T01:44:33.959Z,62.50
2018-12-01T01:47:02.173Z,62.70
2018-12-01T01:49:30.363Z,62.70
2018-12-01T01:51:58.573Z,62.20
2018-12-01T01:54:26.735Z,62.20
2018-12-01T01:56:54.910Z,60.50
2018-12-01T01:59:23.124Z,55.80
2018-12-01T02:01:51.284Z,53.20
2018-12-01T02:04:19.961Z,53.40
2018-12-01T02:06:48.125Z,51.90
2018-12-01T02:09:16.543Z,51.20
2018-12-01T02:11:44.763Z,52.90
2018-12-01T02:14:12.954Z,54.40
2018-12-01T02:16:41.100Z,54.80
2018-12-01T02:19:09.305Z,55.40
2018-12-01T02:21:38.473Z,55.50
2018-12-01T02:24:06.636Z,55.70
2018-12-01T02:26:34.844Z,55.40
2018-12-01T02:29:03.000Z,53.80
2018-12-01T02:31:31.207Z,53.00
2018-12-01T02:33:59.389Z,53.60
2018-12-01T02:36:27.567Z,53.10
2018-12-01T02:38:56.013Z,51.40
2018-12-01T02:41:24.156Z,52.20
2018-12-01T02:44:03.751Z,52.00
2018-12-01T02:46:43.315Z,52.90
2018-12-01T02:49:11.667Z,53.60
2018-12-01T02:51:39.812Z,53.90
2018-12-01T02:54:08.008Z,55.80
2018-12-01T02:56:36.217Z,56.50
2018-12-01T02:59:04.598Z,56.80
2018-12-01T03:01:32.715Z,57.80
2018-12-01T03:04:00.915Z,59.90
2018-12-01T03:06:29.076Z,60.00
2018-12-01T03:08:57.231Z,60.10
2018-12-01T03:11:25.435Z,60.10
2018-12-01T03:13:53.608Z,61.00
2018-12-01T03:16:21.739Z,61.20
2018-12-01T03:18:49.959Z,62.20
2018-12-01T03:21:18.111Z,62.20
2018-12-01T03:23:46.268Z,62.20
2018-12-01T03:26:14.455Z,62.00
2018-12-01T03:28:42.645Z,63.80
2018-12-01T03:31:10.828Z,63.70
2018-12-01T03:33:39.027Z,63.50
2018-12-01T03:36:07.212Z,64.00
2018-12-01T03:38:35.579Z,63.00
2018-12-01T03:41:03.817Z,63.00
2018-12-01T03:43:31.972Z,62.80
2018-12-01T03:46:00.199Z,62.30
2018-12-01T03:48:28.408Z,61.00
2018-12-01T03:50:56.583Z,60.80
2018-12-01T03:53:24.740Z,60.50
2018-12-01T03:55:52.883Z,60.60
2018-12-01T03:58:21.077Z,60.50
2018-12-01T04:00:49.255Z,64.20
2018-12-01T04:03:17.456Z,65.80
2018-12-01T04:05:45.661Z,66.40
2018-12-01T04:08:13.835Z,66.30
2018-12-01T04:10:41.997Z,65.90
2018-12-01T04:13:10.172Z,66.90
2018-12-01T04:15:38.393Z,66.40
2018-12-01T04:18:06.575Z,68.00
2018-12-01T04:20:34.749Z,68.50
2018-12-01T04:23:02.916Z,69.60
2018-12-01T04:25:31.060Z,69.60
2018-12-01T04:27:59.199Z,69.50
2018-12-01T04:30:27.383Z,69.70
2018-12-01T04:32:55.531Z,70.20
2018-12-01T04:35:24.316Z,69.90
2018-12-01T04:37:53.612Z,69.60
2018-12-01T04:40:21.868Z,70.60
2018-12-01T04:42:50.043Z,70.80
2018-12-01T04:45:18.430Z,71.10
2018-12-01T04:47:46.681Z,70.40
2018-12-01T04:50:19.195Z,71.70
2018-12-01T04:52:48.375Z,71.20
2018-12-01T04:55:20.344Z,71.20
2018-12-01T04:57:48.599Z,71.40
2018-12-01T05:00:18.559Z,72.00
2018-12-01T05:02:46.796Z,71.50
2018-12-01T05:05:18.049Z,72.00
2018-12-01T05:07:46.199Z,72.40
2018-12-01T05:10:15.217Z,72.30
2018-12-01T05:12:43.400Z,71.80
2018-12-01T05:15:13.508Z,71.90
2018-12-01T05:17:41.788Z,71.50
2018-12-01T05:20:11.419Z,70.60
2018-12-01T05:22:39.638Z,69.40
2018-12-01T05:25:08.742Z,68.10
2018-12-01T05:27:36.921Z,68.70
2018-12-01T05:30:06.269Z,69.30
2018-12-01T05:32:34.843Z,70.00
2018-12-01T05:35:03.293Z,70.00
2018-12-01T05:37:31.491Z,70.60
2018-12-01T05:39:59.663Z,71.30
2018-12-01T05:42:27.839Z,71.00
2018-12-01T05:44:56.032Z,70.10
2018-12-01T05:47:24.195Z,70.10
2018-12-01T05:49:52.363Z,70.10
2018-12-01T05:52:20.580Z,70.40
2018-12-01T05:54:48.825Z,70.20
2018-12-01T05:57:16.947Z,70.90
2018-12-01T05:59:45.096Z,70.00
2018-12-01T06:02:13.299Z,70.00
2018-12-01T06:04:41.459Z,69.40
2018-12-01T06:07:09.643Z,69.40
2018-12-01T06:09:37.791Z,69.30
2018-12-01T06:12:05.964Z,69.90
2018-12-01T06:14:34.157Z,69.70
2018-12-01T06:17:02.327Z,68.80
2018-12-01T06:19:30.531Z,69.20
2018-12-01T06:21:59.783Z,69.40
2018-12-01T06:24:27.928Z,69.50
2018-12-01T06:26:56.076Z,69.60
2018-12-01T06:29:24.225Z,69.90
2018-12-01T06:31:52.439Z,70.10
2018-12-01T06:34:20.607Z,68.80
2018-12-01T06:36:48.779Z,68.80
2018-12-01T06:39:16.964Z,68.60
2018-12-01T06:41:45.132Z,68.10
2018-12-01T06:44:13.305Z,68.20
2018-12-01T06:46:41.455Z,67.80
2018-12-01T06:49:09.601Z,67.40
2018-12-01T06:51:37.831Z,67.00
2018-12-01T06:54:06.017Z,66.70
2018-12-01T06:56:34.152Z,66.60
2018-12-01T06:59:02.331Z,67.40
2018-12-01T07:01:30.544Z,67.40
2018-12-01T07:03:58.799Z,67.50
2018-12-01T07:06:26.946Z,68.00
2018-12-01T07:08:55.349Z,68.30
2018-12-01T07:11:23.555Z,67.80
2018-12-01T07:13:51.720Z,67.80
2018-12-01T07:16:20.147Z,67.10
2018-12-01T07:18:59.575Z,65.40
2018-12-01T07:21:28.609Z,64.60
2018-12-01T07:23:56.767Z,63.50
2018-12-01T07:26:25.080Z,63.80
2018-12-01T07:28:53.227Z,65.30
2018-12-01T07:31:21.443Z,66.20
2018-12-01T07:33:49.619Z,66.70
2018-12-01T07:36:17.823Z,66.60
2018-12-01T07:38:46.012Z,66.60
2018-12-01T07:41:14.223Z,66.60
2018-12-01T07:43:42.423Z,67.20
2018-12-01T07:46:10.633Z,68.30
2018-12-01T07:48:38.792Z,69.70
2018-12-01T07:51:06.935Z,69.40
2018-12-01T07:53:35.111Z,68.40
2018-12-01T07:56:03.284Z,68.30
2018-12-01T07:58:31.452Z,68.30
2018-12-01T08:00:59.612Z,68.50
2018-12-01T08:03:27.783Z,69.00
2018-12-01T08:05:55.932Z,68.80
2018-12-01T08:08:24.092Z,68.10
2018-12-01T08:10:52.661Z,67.50
2018-12-01T08:13:20.848Z,66.70
2018-12-01T08:15:49.139Z,66.40
2018-12-01T08:18:17.294Z,66.30
2018-12-01T08:20:45.459Z,67.00
2018-12-01T08:23:13.643Z,67.20
2018-12-01T08:25:42.771Z,66.20
2018-12-01T08:28:11.469Z,66.40
2018-12-01T08:30:44.605Z,67.20
2018-12-01T08:33:12.794Z,66.30
2018-12-01T08:35:40.973Z,66.20
2018-12-01T08:38:09.175Z,66.30
2018-12-01T08:40:37.337Z,67.10
2018-12-01T08:43:05.824Z,66.90
2018-12-01T08:45:33.989Z,66.10
2018-12-01T08:48:02.174Z,66.00
2018-12-01T08:50:30.342Z,65.20
2018-12-01T08:52:58.476Z,65.30
2018-12-01T08:55:26.615Z,64.60
2018-12-01T08:57:54.968Z,64.70
2018-12-01T09:00:28.564Z,64.40
2018-12-01T09:02:58.175Z,63.50
2018-12-01T09:05:26.443Z,64.40
2018-12-01T09:07:54.652Z,63.30
2018-12-01T09:10:22.816Z,63.00
2018-12-01T09:12:50.967Z,62.30
2018-12-01T09:15:19.147Z,62.70
2018-12-01T09:17:47.355Z,62.40
2018-12-01T09:20:15.520Z,63.00
2018-12-01T09:22:44.801Z,62.90
2018-12-01T09:25:15.927Z,63.80
2018-12-01T09:27:44.207Z,63.90
2018-12-01T09:30:15.459Z,63.90
2018-12-01T09:32:43.610Z,62.70
2018-12-01T09:35:11.800Z,62.70
2018-12-01T09:37:39.987Z,63.00
2018-12-01T09:40:09.787Z,62.10
2018-12-01T09:42:37.940Z,62.00
2018-12-01T09:45:09.852Z,62.30
2018-12-01T09:47:38.084Z,61.10
2018-12-01T09:50:10.387Z,62.30
2018-12-01T09:52:38.631Z,62.10
2018-12-01T09:55:10.088Z,61.10
2018-12-01T09:57:38.687Z,61.00
2018-12-01T10:00:24.983Z,60.10
2018-12-01T10:02:53.156Z,58.80
2018-12-01T10:05:21.632Z,59.10
2018-12-01T10:07:49.786Z,58.40
2018-12-01T10:10:19.003Z,57.80
2018-12-01T10:12:48.388Z,58.70
2018-12-01T10:15:18.607Z,57.90
2018-12-01T10:17:46.755Z,58.60
2018-12-01T10:20:16.304Z,58.80
2018-12-01T10:22:44.496Z,58.80
2018-12-01T10:25:14.915Z,57.80
2018-12-01T10:27:43.333Z,55.80
2018-12-01T10:30:12.783Z,54.10
2018-12-01T10:32:40.995Z,54.20
2018-12-01T10:35:10.749Z,52.80
2018-12-01T10:37:38.924Z,51.70
2018-12-01T10:40:12.151Z,50.00
2018-12-01T10:42:41.186Z,50.50
2018-12-01T10:45:13.799Z,49.20
2018-12-01T10:47:44.087Z,48.50
2018-12-01T10:50:17.227Z,49.70
2018-12-01T10:52:46.300Z,49.40
2018-12-01T10:55:26.808Z,49.40
2018-12-01T10:57:58.030Z,49.50
2018-12-01T11:00:33.031Z,48.70
2018-12-01T11:03:04.324Z,49.80
2018-12-01T11:05:33.784Z,49.90
2018-12-01T11:08:01.958Z,50.30
2018-12-01T11:10:31.119Z,49.90
2018-12-01T11:13:00.895Z,49.90
2018-12-01T11:15:30.192Z,49.70
2018-12-01T11:17:58.392Z,49.60
2018-12-01T11:20:26.704Z,51.00
2018-12-01T11:22:57.937Z,51.30
2018-12-01T11:25:23.069Z,50.40
2018-12-01T11:27:51.272Z,50.50
2018-12-01T11:30:19.603Z,49.50
2018-12-01T11:32:48.127Z,49.90
2018-12-01T11:35:16.288Z,50.20
2018-12-01T11:37:44.939Z,50.30
2018-12-01T11:40:15.287Z,49.40
2018-12-01T11:42:42.448Z,49.40
2018-12-01T11:45:12.603Z,48.10
2018-12-01T11:47:40.770Z,48.20
2018-12-01T11:50:11.268Z,47.60
2018-12-01T11:52:39.502Z,47.50
2018-12-01T11:55:11.846Z,47.10
2018-12-01T11:57:40.132Z,46.90
2018-12-01T12:00:10.760Z,47.00
2018-12-01T12:02:38.913Z,47.20
2018-12-01T12:05:08.077Z,45.90
2018-12-01T12:07:47.649Z,46.50
2018-12-01T12:10:15.856Z,45.70
2018-12-01T12:12:44.059Z,45.80
2018-12-01T12:15:12.249Z,44.70
2018-12-01T12:17:40.843Z,45.70
2018-12-01T12:20:09.927Z,44.20
2018-12-01T12:22:38.125Z,41.80
2018-12-01T12:25:09.475Z,41.70
2018-12-01T12:27:39.095Z,42.40
2018-12-01T12:30:10.435Z,41.90
2018-12-01T12:32:38.987Z,41.80
2018-12-01T12:35:07.845Z,41.40
2018-12-01T12:37:36.015Z,41.00
2018-12-01T12:40:06.665Z,40.90
2018-12-01T12:42:34.851Z,40.30
2018-12-01T12:45:03.046Z,40.20
2018-12-01T12:47:31.232Z,39.80
2018-12-01T12:49:59.527Z,39.80
2018-12-01T12:52:27.714Z,39.30
2018-12-01T12:54:55.884Z,39.50
2018-12-01T12:57:24.087Z,39.70
2018-12-01T12:59:52.250Z,39.60
2018-12-01T13:02:20.440Z,40.10
2018-12-01T13:04:48.663Z,40.70
2018-12-01T13:07:16.792Z,40.60
2018-12-01T13:09:45.028Z,41.50
2018-12-01T13:12:13.184Z,41.80
2018-12-01T13:14:41.407Z,41.50
2018-12-01T13:17:09.559Z,40.90
2018-12-01T13:19:37.740Z,40.70
2018-12-01T13:22:06.219Z,40.20
2018-12-01T13:24:34.404Z,41.50
2018-12-01T13:27:02.552Z,40.70
2018-12-01T13:29:30.679Z,40.30
2018-12-01T13:31:58.871Z,40.00
2018-12-01T13:34:27.035Z,39.80
2018-12-01T13:36:55.200Z,40.40
2018-12-01T13:39:23.335Z,40.80
2018-12-01T13:41:51.492Z,40.80
2018-12-01T13:44:19.709Z,41.60
2018-12-01T13:46:47.907Z,41.30
2018-12-01T13:49:16.059Z,40.80
2018-12-01T13:51:44.264Z,40.20
2018-12-01T13:54:12.437Z,40.70
2018-12-01T13:56:43.423Z,40.30
2018-12-01T13:59:11.592Z,40.30
2018-12-01T14:01:39.771Z,40.90
2018-12-01T14:04:08.031Z,41.10
2018-12-01T14:06:36.247Z,41.50
2018-12-01T14:09:06.008Z,42.00
2018-12-01T14:11:34.219Z,41.50
2018-12-01T14:14:02.426Z,41.50
2018-12-01T14:16:30.639Z,42.00
2018-12-01T14:18:58.803Z,42.20
2018-12-01T14:21:27.593Z,42.10
2018-12-01T14:23:55.732Z,42.10
2018-12-01T14:26:23.903Z,42.20
2018-12-01T14:28:52.061Z,42.00
2018-12-01T14:31:20.279Z,41.90
2018-12-01T14:33:48.403Z,42.10
2018-12-01T14:36:16.629Z,41.90
2018-12-01T14:38:44.787Z,42.20
2018-12-01T14:41:12.972Z,41.90
2018-12-01T14:43:41.107Z,42.00
2018-12-01T14:46:09.259Z,42.00
2018-12-01T14:48:37.415Z,42.20
2018-12-01T14:51:05.919Z,42.30
2018-12-01T14:53:34.147Z,43.00
2018-12-01T14:56:02.315Z,42.10
2018-12-01T14:58:30.476Z,42.10
2018-12-01T15:00:58.641Z,42.10
2018-12-01T15:03:26.807Z,42.50
2018-12-01T15:05:55.044Z,42.70
2018-12-01T15:08:23.251Z,43.20
2018-12-01T15:10:51.444Z,42.60
2018-12-01T15:13:20.232Z,43.20
2018-12-01T15:15:48.379Z,43.50
2018-12-01T15:18:16.645Z,44.00
2018-12-01T15:20:44.817Z,44.10
2018-12-01T15:23:12.979Z,44.20
2018-12-01T15:25:41.127Z,44.40
2018-12-01T15:28:09.300Z,45.40
2018-12-01T15:30:36.827Z,44.80
2018-12-01T15:33:09.031Z,45.50
2018-12-01T15:35:36.497Z,45.40
2018-12-01T15:38:04.023Z,45.90
2018-12-01T15:40:32.190Z,46.40
2018-12-01T15:43:00.375Z,46.80
2018-12-01T15:45:27.886Z,47.90
2018-12-01T15:47:55.304Z,47.70
2018-12-01T15:50:22.807Z,47.10
2018-12-01T15:52:51.704Z,48.30
2018-12-01T15:55:20.164Z,46.90
2018-12-01T15:57:48.492Z,47.90
2018-12-01T16:00:17.457Z,47.90
2018-12-01T16:02:44.923Z,47.80
2018-12-01T16:05:12.821Z,48.20
2018-12-01T16:07:40.283Z,48.00
2018-12-01T16:10:08.614Z,48.10
2018-12-01T16:12:36.087Z,48.30
2018-12-01T16:15:03.736Z,48.10
2018-12-01T16:17:31.191Z,48.20
2018-12-01T16:19:58.652Z,48.10
2018-12-01T16:22:26.135Z,48.00
2018-12-01T16:24:53.627Z,47.50
2018-12-01T16:27:21.661Z,49.60
2018-12-01T16:29:48.657Z,48.10
2018-12-01T16:32:16.170Z,46.70
2018-12-01T16:34:43.599Z,46.50
2018-12-01T16:37:11.104Z,46.70
2018-12-01T16:39:38.598Z,46.50
2018-12-01T16:42:06.732Z,47.70
2018-12-01T16:44:34.292Z,47.80
2018-12-01T16:47:02.393Z,46.90
2018-12-01T16:49:29.842Z,48.00
2018-12-01T16:51:57.300Z,48.50
2018-12-01T16:54:25.432Z,48.50
2018-12-01T16:56:54.661Z,48.80
2018-12-01T16:59:22.203Z,49.00
2018-12-01T17:01:51.039Z,49.40
2018-12-01T17:04:19.238Z,49.80
2018-12-01T17:06:47.959Z,51.00
2018-12-01T17:09:17.301Z,50.30
2018-12-01T17:11:44.818Z,50.40
2018-12-01T17:14:13.567Z,50.40
2018-12-01T17:16:42.628Z,50.40
2018-12-01T17:19:13.030Z,50.50
2018-12-01T17:21:46.686Z,50.30
2018-12-01T17:24:16.475Z,50.10
2018-12-01T17:26:45.567Z,49.80
2018-12-01T17:29:13.151Z,49.70
2018-12-01T17:31:40.631Z,49.40
2018-12-01T17:34:08.071Z,48.70
2018-12-01T17:36:35.526Z,48.70
2018-12-01T17:39:04.879Z,52.40
2018-12-01T17:41:32.315Z,49.90
2018-12-01T17:44:03.375Z,48.50
2018-12-01T17:46:30.848Z,48.30
2018-12-01T17:48:58.511Z,48.20
2018-12-01T17:51:25.946Z,48.10
2018-12-01T17:53:54.642Z,48.20
2018-12-01T17:56:22.135Z,49.90
2018-12-01T17:58:49.690Z,50.40
2018-12-01T18:01:17.178Z,48.30
2018-12-01T18:03:44.671Z,47.80
2018-12-01T18:06:12.531Z,47.50
2018-12-01T18:08:39.992Z,50.40
2018-12-01T18:11:07.808Z,49.90
2018-12-01T18:13:35.271Z,49.60
2018-12-01T18:16:03.151Z,49.00
2018-12-01T18:18:30.634Z,48.00
2018-12-01T18:20:58.119Z,48.50
2018-12-01T18:23:25.611Z,48.20
2018-12-01T18:25:53.907Z,47.10
2018-12-01T18:28:25.169Z,46.70
2018-12-01T18:30:52.933Z,47.60
2018-12-01T18:33:22.335Z,47.30
2018-12-01T18:35:49.822Z,45.70
2018-12-01T18:38:17.326Z,45.90
2018-12-01T18:40:44.808Z,45.50
2018-12-01T18:43:12.315Z,45.60
2018-12-01T18:45:41.663Z,45.80
2018-12-01T18:48:09.095Z,46.70
2018-12-01T18:50:36.894Z,44.50
2018-12-01T18:53:05.721Z,45.40
2018-12-01T18:55:33.930Z,45.50
2018-12-01T18:58:01.403Z,46.20
2018-12-01T19:00:33.142Z,45.30
2018-12-01T19:03:00.620Z,46.70
2018-12-01T19:05:28.095Z,45.50
2018-12-01T19:07:55.703Z,44.90
2018-12-01T19:10:23.191Z,46.60
2018-12-01T19:12:50.651Z,45.40
2018-12-01T19:15:18.094Z,44.20
2018-12-01T19:17:46.308Z,45.40
2018-12-01T19:20:14.319Z,45.80
2018-12-01T19:22:41.839Z,46.40
2018-12-01T19:25:10.019Z,47.80
2018-12-01T19:27:37.506Z,48.10
2018-12-01T19:30:06.492Z,48.50
2018-12-01T19:32:33.971Z,48.50
2018-12-01T19:35:01.444Z,47.90
2018-12-01T19:37:28.884Z,47.60
2018-12-01T19:39:56.371Z,47.90
2018-12-01T19:42:23.841Z,46.40
2018-12-01T19:44:51.331Z,46.70
2018-12-01T19:47:18.787Z,46.70
2018-12-01T19:49:46.219Z,46.20
2018-12-01T19:52:13.702Z,46.70
2018-12-01T19:54:41.282Z,46.00
2018-12-01T19:57:08.828Z,45.80
2018-12-01T19:59:36.316Z,45.70
2018-12-01T20:02:03.819Z,45.80
2018-12-01T20:04:31.519Z,45.60
2018-12-01T20:06:58.971Z,45.60
2018-12-01T20:09:26.458Z,45.60
2018-12-01T20:11:53.947Z,45.60
2018-12-01T20:14:21.452Z,45.60
2018-12-01T20:16:50.075Z,45.60
2018-12-01T20:19:17.560Z,45.00
2018-12-01T20:21:45.024Z,45.50
2018-12-01T20:24:12.488Z,45.50
2018-12-01T20:26:40.762Z,45.50
2018-12-01T20:29:08.243Z,46.10
2018-12-01T20:31:35.732Z,45.00
2018-12-01T20:34:03.319Z,45.10
2018-12-01T20:36:33.839Z,44.80
2018-12-01T20:39:05.627Z,44.70
2018-12-01T20:41:33.095Z,44.80
2018-12-01T20:44:00.555Z,45.40
2018-12-01T20:46:28.027Z,45.20
2018-12-01T20:48:55.455Z,45.10
2018-12-01T20:51:22.918Z,45.20
2018-12-01T20:53:50.354Z,45.20
2018-12-01T20:56:19.223Z,44.80
2018-12-01T20:58:46.667Z,45.20
2018-12-01T21:01:14.127Z,45.50
2018-12-01T21:03:41.626Z,45.40
2018-12-01T21:06:09.255Z,45.20
2018-12-01T21:08:36.687Z,45.30
2018-12-01T21:11:05.944Z,44.90
2018-12-01T21:13:33.435Z,44.50
2018-12-01T21:16:01.235Z,44.70
2018-12-01T21:18:28.695Z,44.50
2018-12-01T21:20:56.131Z,44.50
2018-12-01T21:23:23.602Z,44.20
2018-12-01T21:25:51.363Z,43.40
2018-12-01T21:28:18.831Z,43.30
2018-12-01T21:30:46.682Z,43.60
2018-12-01T21:33:15.483Z,43.40
2018-12-01T21:35:42.941Z,43.50
2018-12-01T21:38:11.031Z,43.90
2018-12-01T21:40:38.871Z,44.30
2018-12-01T21:43:06.520Z,44.30
2018-12-01T21:45:33.999Z,44.30
2018-12-01T21:48:01.702Z,44.20
2018-12-01T21:50:30.372Z,44.80
2018-12-01T21:52:57.846Z,45.10
2018-12-01T21:55:25.506Z,46.10
2018-12-01T21:57:53.311Z,45.40
2018-12-01T22:00:24.406Z,45.40
2018-12-01T22:02:54.667Z,45.40
2018-12-01T22:05:23.160Z,45.40
2018-12-01T22:07:50.623Z,45.20
2018-12-01T22:10:18.111Z,45.40
2018-12-01T22:12:45.548Z,45.30
2018-12-01T22:15:15.754Z,44.70
2018-12-01T22:17:43.206Z,45.00
2018-12-01T22:20:11.427Z,44.80
2018-12-01T22:22:38.881Z,44.70
2018-12-01T22:25:07.107Z,44.60
2018-12-01T22:27:34.568Z,44.40
2018-12-01T22:30:02.026Z,44.50
2018-12-01T22:32:29.500Z,44.70
2018-12-01T22:34:56.939Z,45.40
2018-12-01T22:37:24.367Z,45.00
2018-12-01T22:39:51.859Z,44.90
2018-12-01T22:42:19.307Z,43.90
2018-12-01T22:44:46.779Z,43.80
2018-12-01T22:47:15.318Z,44.10
2018-12-01T22:49:42.799Z,44.80
2018-12-01T22:52:10.251Z,44.80
2018-12-01T22:54:37.748Z,44.80
2018-12-01T22:57:05.275Z,45.40
2018-12-01T22:59:32.723Z,45.40
2018-12-01T23:02:00.178Z,45.40
2018-12-01T23:04:27.642Z,45.30
2018-12-01T23:06:55.099Z,45.40
2018-12-01T23:09:22.527Z,45.30
2018-12-01T23:11:49.959Z,45.30
2018-12-01T23:14:17.403Z,45.50
2018-12-01T23:16:45.042Z,45.40
2018-12-01T23:19:12.515Z,46.10
2018-12-01T23:21:39.985Z,45.90
2018-12-01T23:24:07.478Z,46.40
2018-12-01T23:26:34.907Z,45.80
2018-12-01T23:29:02.382Z,46.20
2018-12-01T23:31:29.819Z,46.30
2018-12-01T23:33:57.307Z,45.80
2018-12-01T23:36:24.979Z,45.60
2018-12-01T23:38:52.427Z,45.90
2018-12-01T23:41:19.920Z,45.80
2018-12-01T23:43:47.367Z,45.30
2018-12-01T23:46:14.803Z,45.40
2018-12-01T23:48:42.239Z,45.40
2018-12-01T23:51:09.723Z,44.30
2018-12-01T23:53:37.203Z,43.70
2018-12-01T23:56:04.639Z,43.90
2018-12-01T23:58:32.079Z,43.90
